Latest Weather Observations for Lismore Airport

IDN60801

Issued at 10:05 pm EST Thursday 2 October 2014 (issued every 30 minutes, with the page automatically refreshed every 10 minutes)

About weather observations | Map of weather stations | Latest weather observations for NSW | Other Formats
Station Details ID: 058214 Name: LISMORE AIRPORT AWS Lat: -28.83 Lon: 153.26 Height: 9.21 m
Data from the previous 72 hours. | See also: Recent months for locations in New South Wales
Date/Time
EST
Temp
°C
App
Temp
°C
Dew
Point
Rel
Hum
%
Delta-T
°C
Wind Press
QNH
hPa
Press
MSL
hPa
Rain
since 9 am
mm
Dir
 
Spd
km/h
Gust
km/h
Spd
kts
Gust
kts
02/10:00pm 12.8 11.1 9.8 82 1.5 N 9 11 5 6 1020.6 1020.6 0.0
02/09:30pm 12.7 11.0 9.7 82 1.5 N 9 13 5 7 1020.6 1020.6 0.0
02/09:00pm 13.6 11.9 9.8 78 1.9 N 9 11 5 6 1020.5 1020.5 0.0
02/08:30pm 16.1 13.7 10.2 68 3.1 NNE 13 15 7 8 1020.4 1020.4 0.0
02/08:00pm 16.7 13.6 10.3 66 3.4 NNE 17 20 9 11 1020.1 1020.1 0.0
02/07:30pm 17.0 13.8 10.1 64 3.6 NE 17 22 9 12 1020.0 1020.0 0.0
02/07:00pm 17.2 13.7 10.1 63 3.7 NE 19 28 10 15 1019.7 1019.7 0.0
02/06:30pm 17.7 13.9 9.8 60 4.2 NE 20 32 11 17 1019.5 1019.5 0.0
02/06:00pm 18.3 14.1 9.9 58 4.4 NE 22 32 12 17 1019.2 1019.2 0.0
02/05:30pm 19.0 15.2 9.8 55 4.9 NE 20 32 11 17 1019.2 1019.2 0.0
02/05:00pm 19.9 15.3 9.5 51 5.5 ENE 24 30 13 16 1019.1 1019.1 0.0
02/04:30pm 21.0 17.4 9.9 49 6.0 ENE 19 28 10 15 1018.9 1018.9 0.0
02/04:00pm 21.6 18.0 9.8 47 6.4 ENE 19 28 10 15 1018.8 1018.8 0.0
02/03:30pm 21.8 18.2 10.0 47 6.4 ESE 19 24 10 13 1018.8 1018.8 0.0
02/03:00pm 22.4 21.2 10.2 46 6.6 SE 7 15 4 8 1018.9 1018.9 0.0
02/02:30pm 22.6 21.0 11.4 49 6.3 ESE 11 17 6 9 1019.2 1019.2 0.0
02/02:00pm 22.1 19.3 9.9 46 6.6 SE 15 20 8 11 1019.7 1019.7 0.0
02/01:30pm 22.7 21.1 10.2 45 6.8 ESE 9 20 5 11 1020.0 1020.0 0.0
02/01:00pm 22.5 20.5 10.3 46 6.7 ESE 11 17 6 9 1020.4 1020.4 0.0
02/12:30pm 22.2 19.9 10.4 47 6.5 E 13 20 7 11 1020.8 1020.8 0.0
02/12:00pm 21.0 19.2 9.3 47 6.2 SE 9 17 5 9 1021.2 1021.2 0.0
02/11:00am 20.8 18.6 9.4 48 6.1 SSE 11 20 6 11 1022.2 1022.2 0.0
02/10:30am 20.2 18.5 8.5 47 6.1 E 7 13 4 7 1022.5 1022.5 0.0
02/10:00am 20.2 19.0 9.5 50 5.7 SW 6 13 3 7 1022.7 1022.7 0.0
02/09:30am 19.5 19.2 8.5 49 5.7 CALM 0 7 0 4 1022.8 1022.8 0.0
02/09:00am 19.3 17.4 9.2 52 5.3 S 9 19 5 10 1022.9 1022.9 0.0
02/08:30am 18.8 16.1 9.0 53 5.1 SSW 13 20 7 11 1022.8 1022.8 0.0
02/08:00am 18.2 15.3 8.2 52 5.1 S 13 19 7 10 1022.8 1022.8 0.0
02/07:30am 17.3 14.7 7.6 53 4.9 SSW 11 17 6 9 1022.6 1022.6 0.0
02/07:00am 16.1 15.2 7.8 58 4.1 SSW 2 13 1 7 1022.6 1022.6 0.0
02/06:30am 14.4 14.6 10.4 77 2.1 SSE 0 0 0 0 1022.5 1022.5 0.0
02/06:00am 13.7 13.3 8.3 70 2.7 CALM 0 0 0 0 1022.1 1022.1 0.0
02/05:30am 14.1 13.8 8.5 69 2.8 CALM 0 0 0 0 1021.9 1021.9 0.0
02/05:00am 14.6 13.6 9.0 69 2.8 SSE 4 7 2 4 1021.6 1021.6 0.0
02/04:30am 14.7 14.4 8.6 67 3.1 CALM 0 0 0 0 1021.4 1021.4 0.0
02/04:00am 14.8 13.1 8.5 66 3.2 SSE 7 9 4 5 1021.1 1021.1 0.0
02/03:30am 15.0 13.5 8.5 65 3.3 SE 6 9 3 5 1020.8 1020.8 0.0
02/03:00am 15.0 14.8 9.1 68 3.0 CALM 0 6 0 3 1020.8 1020.8 0.0
02/02:30am 14.9 14.7 9.1 68 3.0 CALM 0 0 0 0 1020.8 1020.8 0.0
02/02:00am 15.1 13.5 8.1 63 3.5 SSW 6 9 3 5 1020.9 1020.9 0.0
02/01:30am 15.8 15.5 8.5 62 3.7 CALM 0 0 0 0 1020.9 1020.9 0.0
02/01:00am 16.1 15.0 8.6 61 3.8 SSW 4 9 2 5 1021.2 1021.2 0.0
02/12:30am 16.2 14.3 9.2 63 3.6 SW 9 13 5 7 1021.3 1021.3 0.0
02/12:00am 16.6 14.3 9.1 61 3.9 SSW 11 13 6 7 1021.4 1021.4 0.0
 
Date/Time
EST
Temp
°C
App
Temp
°C
Dew
Point
Rel
Hum
%
Delta-T
°C
Wind Press
QNH
hPa
Press
MSL
hPa
Rain
since 9 am
mm
Dir
 
Spd
km/h
Gust
km/h
Spd
kts
Gust
kts
01/11:30pm 17.0 14.7 8.9 59 4.2 SSW 11 15 6 8 1021.5 1021.5 0.0
01/11:00pm 17.1 14.9 9.3 60 4.0 SSW 11 13 6 7 1021.6 1021.6 0.0
01/10:30pm 17.7 15.0 8.8 56 4.6 S 13 19 7 10 1021.5 1021.5 0.0
01/10:00pm 18.0 14.6 9.1 56 4.6 S 17 19 9 10 1021.3 1021.3 0.0
01/09:30pm 17.9 15.3 9.5 58 4.4 S 13 17 7 9 1021.2 1021.2 0.0
01/09:00pm 18.2 15.6 9.5 57 4.6 S 13 19 7 10 1020.9 1020.9 0.0
01/08:30pm 18.4 14.4 9.2 55 4.8 S 20 26 11 14 1020.6 1020.6 0.0
01/08:00pm 18.6 15.0 9.7 56 4.7 S 19 26 10 14 1020.4 1020.4 0.0
01/07:30pm 18.8 14.6 9.8 56 4.8 S 22 32 12 17 1019.8 1019.8 0.0
01/07:00pm 19.1 15.4 10.1 56 4.8 S 20 30 11 16 1019.2 1019.2 0.0
01/06:30pm 19.4 14.8 11.2 59 4.5 SSE 26 41 14 22 1018.6 1018.6 0.0
01/06:00pm 19.6 14.8 11.6 60 4.4 S 28 41 15 22 1017.9 1017.9 0.0
01/05:35pm 20.0 15.4 12.3 61 4.3 SSE 28 46 15 25 1017.3 1017.3 0.0
01/05:30pm 20.0 15.8 12.5 62 4.2 SSE 26 39 14 21 1017.2 1017.2 0.0
01/05:00pm 20.5 14.6 12.5 60 4.5 SSE 35 48 19 26 1016.5 1016.5 0.0
01/04:30pm 20.9 15.6 14.1 65 3.9 SSE 35 56 19 30 1015.8 1015.8 0.0
01/04:01pm 21.6 15.3 14.7 65 4.1 SSE 41 59 22 32 1015.0 1015.0 0.0
01/04:00pm 21.6 15.1 15.0 66 3.9 SSE 43 59 23 32 1014.9 1014.9 0.0
01/03:37pm 22.3 16.0 15.6 66 4.0 SSE 43 61 23 33 1014.0 1014.0 0.0
01/03:30pm 23.0 16.3 16.1 65 4.2 SSE 46 61 25 33 1013.9 1013.9 0.0
01/03:21pm 23.0 16.8 15.8 64 4.3 SSE 43 61 23 33 1013.7 1013.7 0.0
01/03:00pm 23.8 17.8 16.8 65 4.3 SSE 44 59 24 32 1013.2 1013.2 0.0
01/02:30pm 25.1 19.4 17.6 63 4.7 SSE 44 63 24 34 1012.4 1012.4 0.0
01/02:25pm 25.6 20.4 17.5 61 5.1 SSE 41 59 22 32 1012.2 1012.2 0.0
01/02:00pm 27.9 22.2 16.2 49 7.2 S 41 54 22 29 1011.6 1011.6 0.0
01/01:57pm 29.2 23.7 14.6 41 8.8 S 37 54 20 29 1011.5 1011.5 0.0
01/01:30pm 33.6 26.3 2.4 14 15.9 WSW 30 41 16 22 1011.1 1011.1 0.0
01/01:00pm 33.4 29.7 10.1 24 13.4 W 20 30 11 16 1011.4 1011.4 0.0
01/12:30pm 32.3 30.0 10.4 26 12.6 WNW 13 26 7 14 1011.7 1011.7 0.0
01/12:00pm 31.8 28.7 11.6 29 11.8 W 19 26 10 14 1012.3 1012.3 0.0
01/11:30am 31.3 27.3 11.7 30 11.5 WNW 24 32 13 17 1012.9 1012.9 0.0
01/11:00am 30.9 28.6 14.1 36 10.2 NW 19 26 10 14 1013.1 1013.1 0.0
01/10:30am 30.3 27.8 15.2 40 9.3 NW 22 32 12 17 1013.6 1013.6 0.0
01/10:00am 29.1 26.7 14.5 41 8.8 NW 20 32 11 17 1014.0 1014.0 0.0
01/09:30am 27.7 24.4 12.9 40 8.7 WNW 22 33 12 18 1014.5 1014.5 0.0
01/09:00am 28.1 25.1 13.6 41 8.6 WNW 22 35 12 19 1014.5 1014.5 0.0
01/08:30am 26.4 23.5 13.9 46 7.4 N 22 32 12 17 1014.4 1014.4 0.0
01/08:00am 23.1 22.8 16.4 66 4.1 N 13 17 7 9 1015.1 1015.1 0.0
01/07:30am 20.3 20.4 15.5 74 2.8 N 9 13 5 7 1015.4 1015.4 0.0
01/07:00am 17.0 17.0 15.3 90 1.0 N 9 11 5 6 1015.3 1015.3 0.0
01/06:30am 14.2 13.4 14.0 99 0.1 N 11 15 6 8 1014.9 1014.9 0.0
01/06:00am 13.8 12.9 13.6 99 0.1 NNE 11 13 6 7 1014.2 1014.2 0.0
01/05:30am 13.2 12.1 13.0 99 0.1 N 11 13 6 7 1014.1 1014.1 0.0
01/05:00am 12.4 11.4 12.2 99 0.1 N 9 11 5 6 1013.6 1013.6 0.0
01/04:30am 12.5 11.5 12.3 99 0.1 N 9 11 5 6 1013.3 1013.3 0.0
01/04:00am 13.7 12.7 13.5 99 0.1 N 11 13 6 7 1013.2 1013.2 0.0
01/03:30am 13.4 12.7 13.2 99 0.1 N 9 11 5 6 1013.1 1013.1 0.0
01/03:00am 13.7 12.3 13.4 98 0.2 N 13 13 7 7 1013.2 1013.2 0.0
01/02:30am 14.0 13.0 13.5 97 0.3 N 11 13 6 7 1013.4 1013.4 0.0
01/02:00am 14.3 13.3 13.3 94 0.6 N 11 13 6 7 1013.8 1013.8 0.0
01/01:30am 15.5 14.4 14.4 93 0.6 N 13 15 7 8 1014.1 1014.1 0.0
01/01:00am 15.4 14.8 14.6 95 0.5 N 11 15 6 8 1014.4 1014.4 0.0
01/12:30am 15.6 15.0 14.5 93 0.6 NNW 11 15 6 8 1014.9 1014.9 0.0
01/12:00am 16.0 15.0 14.7 92 0.7 N 13 17 7 9 1015.1 1015.1 0.0
 
Date/Time
EST
Temp
°C
App
Temp
°C
Dew
Point
Rel
Hum
%
Delta-T
°C
Wind Press
QNH
hPa
Press
MSL
hPa
Rain
since 9 am
mm
Dir
 
Spd
km/h
Gust
km/h
Spd
kts
Gust
kts
30/11:30pm 15.7 14.6 14.4 92 0.7 N 13 17 7 9 1015.5 1015.5 0.0
30/11:00pm 16.2 14.9 14.7 91 0.9 N 15 19 8 10 1015.6 1015.6 0.0
30/10:30pm 16.9 15.9 14.5 86 1.4 N 13 17 7 9 1015.7 1015.7 0.0
30/10:00pm 18.3 17.1 15.0 81 1.9 N 15 19 8 10 1015.9 1015.9 0.0
30/09:30pm 18.7 17.6 15.2 80 2.1 N 15 17 8 9 1015.9 1015.9 0.0
30/09:00pm 19.0 17.7 14.9 77 2.4 N 15 19 8 10 1016.1 1016.1 0.0
30/08:30pm 19.4 17.8 14.9 75 2.6 NNE 17 20 9 11 1016.1 1016.1 0.0
30/08:00pm 20.3 18.4 15.1 72 3.1 NNE 19 24 10 13 1015.9 1015.9 0.0
30/07:30pm 20.9 18.7 15.0 69 3.5 NNE 20 26 11 14 1015.7 1015.7 0.0
30/07:00pm 21.1 18.9 15.0 68 3.6 NE 20 28 11 15 1015.5 1015.5 0.0
30/06:30pm 21.8 19.8 14.9 65 4.1 NE 19 24 10 13 1015.2 1015.2 0.0
30/06:00pm 22.7 20.5 15.0 61 4.6 NE 20 28 11 15 1014.8 1014.8 0.0
30/05:30pm 23.4 20.5 15.2 60 4.9 NE 24 32 13 17 1014.5 1014.5 0.0
30/05:00pm 24.8 21.9 15.1 54 5.8 NE 24 33 13 18 1014.4 1014.4 0.0
30/04:30pm 25.9 22.7 15.3 52 6.4 NE 26 35 14 19 1014.5 1014.5 0.0
30/04:00pm 26.8 24.1 15.5 50 6.9 NE 24 30 13 16 1014.7 1014.7 0.0
30/03:30pm 27.3 24.1 15.3 48 7.3 ENE 26 33 14 18 1014.5 1014.5 0.0
30/03:00pm 28.1 25.1 14.7 44 8.1 ENE 24 32 13 17 1014.6 1014.6 0.0
30/02:30pm 29.2 27.0 15.0 42 8.7 ENE 20 26 11 14 1014.8 1014.8 0.0
30/02:00pm 30.3 28.1 16.0 42 8.9 NE 22 28 12 15 1014.8 1014.8 0.0
30/01:30pm 30.7 28.9 12.1 32 10.9 NNW 13 20 7 11 1015.2 1015.2 0.0
30/01:00pm 30.7 30.4 14.3 36 9.9 N 9 13 5 7 1015.7 1015.7 0.0
30/12:30pm 30.2 29.6 13.5 36 10.0 N 9 15 5 8 1016.3 1016.3 0.0
30/12:00pm 29.5 29.4 14.9 41 8.9 NNW 9 15 5 8 1016.7 1016.7 0.0
30/11:30am 28.6 27.3 12.5 37 9.4 NNW 11 17 6 9 1017.1 1017.1 0.0
30/11:00am 28.1 28.3 14.3 42 8.3 WNW 6 11 3 6 1017.6 1017.6 0.0
30/10:30am 26.9 26.3 13.6 44 7.9 N 9 20 5 11 1018.1 1018.1 0.0
30/10:00am 25.8 24.6 14.0 48 7.0 N 13 20 7 11 1018.6 1018.6 0.0
30/09:30am 24.4 24.0 14.2 53 6.0 NNW 9 11 5 6 1019.1 1019.1 0.0
30/09:00am 22.5 22.7 14.6 61 4.6 NNW 7 11 4 6 1019.3 1019.3 0.0
30/08:30am 20.5 20.8 14.6 69 3.4 N 6 9 3 5 1019.2 1019.2 0.0
30/08:00am 18.3 17.9 14.2 77 2.3 N 9 13 5 7 1019.3 1019.3 0.0
30/07:30am 16.4 16.3 14.9 91 0.9 N 9 11 5 6 1019.3 1019.3 0.0
30/07:00am 14.1 13.6 13.9 99 0.1 N 9 11 5 6 1019.3 1019.3 0.0
30/06:30am 13.0 12.2 12.8 99 0.1 N 9 11 5 6 1019.0 1019.0 0.0
30/06:09am 12.4 11.4 12.2 99 0.1 N 9 13 5 7 1018.9 1018.9 0.0
30/06:00am 11.9 10.0 11.7 99 0.1 N 13 13 7 7 1018.8 1018.8 0.0
30/05:53am 11.6 9.6 11.4 99 0.1 N 13 13 7 7 1018.7 1018.7 0.0
30/05:41am 11.3 9.2 11.1 99 0.1 N 13 13 7 7 1018.5 1018.5 0.0
30/05:30am 11.1 9.3 10.9 99 0.1 N 11 13 6 7 1018.4 1018.4 0.0
30/05:23am 11.1 9.3 10.9 99 0.1 N 11 13 6 7 1018.4 1018.4 0.0
30/05:15am 11.1 9.3 10.9 99 0.1 N 11 13 6 7 1018.2 1018.2 0.0
30/05:06am 11.0 9.6 10.8 99 0.1 N 9 11 5 6 1018.1 1018.1 0.0
30/05:03am 11.2 9.8 11.0 99 0.1 N 9 11 5 6 1018.1 1018.1 0.0
30/05:00am 11.2 9.8 11.0 99 0.1 N 9 11 5 6 1018.1 1018.1 0.0
30/04:33am 11.6 10.0 11.4 99 0.1 N 11 13 6 7 1017.9 1017.9 0.0
30/04:30am 11.7 10.5 11.5 99 0.1 N 9 13 5 7 1017.9 1017.9 0.0
30/04:07am 11.3 10.0 11.1 99 0.1 N 9 11 5 6 1017.7 1017.7 0.0
30/04:00am 11.7 10.8 11.5 99 0.1 N 7 9 4 5 1017.6 1017.6 0.0
30/03:54am 11.9 11.1 11.7 99 0.1 NNE 7 9 4 5 1017.6 1017.6 0.0
30/03:30am 11.8 11.0 11.6 99 0.1 N 7 9 4 5 1017.6 1017.6 0.0
30/03:25am 11.7 10.8 11.5 99 0.1 N 7 9 4 5 1017.5 1017.5 0.0
30/03:19am 11.6 10.3 11.4 99 0.1 N 9 11 5 6 1017.5 1017.5 0.0
30/03:00am 12.8 11.5 12.6 99 0.1 N 11 13 6 7 1017.4 1017.4 0.0
30/02:30am 12.7 11.4 12.5 99 0.1 N 11 11 6 6 1017.5 1017.5 0.0
30/02:00am 13.0 11.8 12.8 99 0.1 N 11 13 6 7 1017.6 1017.6 0.0
30/01:30am 13.2 12.1 13.0 99 0.1 N 11 13 6 7 1017.7 1017.7 0.0
30/01:00am 13.6 12.6 13.4 99 0.1 N 11 13 6 7 1017.9 1017.9 0.0
30/12:30am 14.0 12.7 13.8 99 0.1 NNW 13 17 7 9 1018.0 1018.0 0.0
30/12:00am 14.6 13.4 14.1 97 0.3 N 13 15 7 8 1018.0 1018.0 0.0
 
Date/Time
EST
Temp
°C
App
Temp
°C
Dew
Point
Rel
Hum
%
Delta-T
°C
Wind Press
QNH
hPa
Press
MSL
hPa
Rain
since 9 am
mm
Dir
 
Spd
km/h
Gust
km/h
Spd
kts
Gust
kts
29/11:30pm 14.4 13.5 13.8 96 0.3 N 11 15 6 8 1018.2 1018.2 0.0
29/11:00pm 14.7 13.1 13.9 95 0.4 N 15 17 8 9 1018.1 1018.1 0.0
29/10:30pm 15.6 14.0 14.0 90 0.9 N 15 17 8 9 1018.2 1018.2 0.0

Other Formats:

Comma delimited format used in spreadsheet applications
http://www.bom.gov.au/fwo/IDN60801/IDN60801.94572.axf

JavaScript Object Notation format (JSON) in row-major order
http://www.bom.gov.au/fwo/IDN60801/IDN60801.94572.json